createdAt,value
2023-04-03T00:03:35.893Z,4.84
2023-04-03T00:08:57.347Z,4.85
2023-04-03T00:14:18.780Z,4.82
2023-04-03T00:19:40.119Z,4.84
2023-04-03T00:25:01.720Z,4.81
2023-04-03T00:30:23.673Z,4.84
2023-04-03T00:35:45.664Z,4.80
2023-04-03T00:41:07.302Z,4.79
2023-04-03T00:46:28.813Z,4.79
2023-04-03T00:51:50.792Z,4.69
2023-04-03T00:57:12.896Z,4.64
2023-04-03T01:02:34.285Z,4.48
2023-04-03T01:07:56.157Z,4.46
2023-04-03T01:13:25.798Z,4.40
2023-04-03T01:18:47.472Z,4.32
2023-04-03T01:24:29.216Z,4.11
2023-04-03T01:29:50.825Z,3.97
2023-04-03T01:35:13.038Z,3.83
2023-04-03T01:40:34.651Z,3.72
2023-04-03T01:45:56.331Z,3.60
2023-04-03T01:51:17.942Z,3.56
2023-04-03T01:56:40.176Z,3.45
2023-04-03T02:02:02.886Z,3.38
2023-04-03T02:07:24.409Z,3.24
2023-04-03T02:12:46.359Z,3.29
2023-04-03T02:18:08.064Z,3.13
2023-04-03T02:23:29.659Z,3.01
2023-04-03T02:28:50.926Z,2.84
2023-04-03T02:34:12.310Z,2.70
2023-04-03T02:39:33.760Z,2.50
2023-04-03T02:44:57.615Z,2.34
2023-04-03T02:50:27.008Z,2.16
2023-04-03T02:55:48.645Z,1.97
2023-04-03T03:01:13.979Z,1.86
2023-04-03T03:06:38.114Z,1.72
2023-04-03T03:11:59.990Z,1.65
2023-04-03T03:17:21.566Z,1.56
2023-04-03T03:22:46.218Z,1.49
2023-04-03T03:28:08.174Z,1.35
2023-04-03T03:33:29.470Z,1.28
2023-04-03T03:38:50.980Z,1.19
2023-04-03T03:44:15.462Z,1.04
2023-04-03T03:49:37.388Z,0.93
2023-04-03T03:54:58.772Z,0.86
2023-04-03T04:00:25.162Z,0.88
2023-04-03T04:05:51.173Z,0.87
2023-04-03T04:11:13.220Z,0.92
2023-04-03T04:16:38.167Z,0.78
2023-04-03T04:22:06.087Z,0.78
2023-04-03T04:27:28.460Z,0.73
2023-04-03T04:32:51.089Z,0.74
2023-04-03T04:38:18.866Z,0.72
2023-04-03T04:44:13.127Z,0.75
2023-04-03T04:50:04.025Z,0.83
2023-04-03T04:55:27.011Z,0.96
2023-04-03T05:01:05.290Z,1.12
2023-04-03T05:07:01.118Z,1.49
2023-04-03T05:13:03.440Z,1.86
2023-04-03T05:19:27.993Z,2.19
2023-04-03T05:25:50.904Z,2.84
2023-04-03T05:32:16.019Z,3.53
2023-04-03T05:38:05.657Z,4.30
2023-04-03T05:43:30.320Z,5.34
2023-04-03T05:48:52.593Z,6.52
2023-04-03T05:54:24.041Z,9.74
2023-04-03T05:59:48.580Z,17.32
2023-04-03T06:05:40.664Z,22.72
2023-04-03T06:11:04.013Z,24.45
2023-04-03T06:16:25.681Z,24.78
2023-04-03T06:21:48.365Z,23.54
2023-04-03T06:27:12.216Z,22.73
2023-04-03T06:32:33.773Z,16.20
2023-04-03T06:37:57.590Z,11.85
2023-04-03T06:43:19.085Z,9.71
2023-04-03T06:48:40.297Z,16.77
2023-04-03T06:54:01.564Z,26.15
2023-04-03T06:59:22.865Z,31.18
2023-04-03T07:04:44.589Z,33.08
2023-04-03T07:10:07.504Z,33.84
2023-04-03T07:15:29.733Z,30.00
2023-04-03T07:20:51.430Z,22.22
2023-04-03T07:26:12.554Z,24.15
2023-04-03T07:31:35.216Z,19.15
2023-04-03T07:36:57.902Z,24.95
2023-04-03T07:42:19.263Z,31.53
2023-04-03T07:47:40.763Z,32.17
2023-04-03T07:53:03.023Z,32.78
2023-04-03T07:58:24.122Z,36.10
2023-04-03T08:03:45.591Z,31.89
2023-04-03T08:09:06.712Z,29.49
2023-04-03T08:14:27.877Z,23.30
2023-04-03T08:19:48.711Z,18.78
2023-04-03T08:25:10.148Z,18.71
2023-04-03T08:30:31.497Z,21.51
2023-04-03T08:35:52.443Z,28.77
2023-04-03T08:41:16.498Z,33.15
2023-04-03T08:47:01.728Z,32.90
2023-04-03T08:52:37.162Z,28.85
2023-04-03T08:58:19.632Z,30.96
2023-04-03T09:03:44.252Z,36.20
2023-04-03T09:09:11.882Z,38.64
2023-04-03T09:15:12.401Z,38.19
2023-04-03T09:20:39.665Z,38.91
2023-04-03T09:26:06.167Z,34.46
2023-04-03T09:31:30.905Z,36.55
2023-04-03T09:36:53.719Z,32.21
2023-04-03T09:42:22.531Z,30.65
2023-04-03T09:47:45.325Z,33.72
2023-04-03T09:53:08.476Z,37.58
2023-04-03T09:58:50.284Z,36.45
2023-04-03T10:04:14.279Z,32.70
2023-04-03T10:09:35.689Z,32.42
2023-04-03T10:15:01.666Z,34.88
2023-04-03T10:20:34.458Z,31.47
2023-04-03T10:26:33.847Z,25.79
2023-04-03T10:32:23.852Z,21.13
2023-04-03T10:38:11.138Z,18.06
2023-04-03T10:43:50.806Z,16.39
2023-04-03T10:49:30.623Z,15.63
2023-04-03T10:55:19.838Z,18.47
2023-04-03T11:00:46.640Z,15.54
2023-04-03T11:06:10.746Z,13.80
2023-04-03T11:11:36.946Z,14.07
2023-04-03T11:17:20.165Z,14.80
2023-04-03T11:23:05.474Z,15.20
2023-04-03T11:28:27.697Z,14.41
2023-04-03T11:34:09.721Z,13.15
2023-04-03T11:39:36.263Z,14.44
2023-04-03T11:45:23.430Z,14.28
2023-04-03T11:50:46.344Z,14.15
2023-04-03T11:56:43.114Z,15.17
2023-04-03T12:02:54.754Z,15.06
2023-04-03T12:08:38.302Z,14.27
2023-04-03T12:13:59.789Z,12.96
2023-04-03T12:24:59.751Z,13.56
2023-04-03T12:30:24.151Z,13.44
2023-04-03T12:36:07.299Z,13.07
2023-04-03T12:41:40.944Z,12.25
2023-04-03T12:47:02.129Z,12.00
2023-04-03T12:52:32.544Z,11.62
2023-04-03T12:57:53.280Z,11.81
2023-04-03T13:03:24.415Z,11.61
2023-04-03T13:08:58.206Z,11.31
2023-04-03T13:14:23.851Z,11.16
2023-04-03T13:19:47.036Z,11.29
2023-04-03T13:25:09.346Z,11.57
2023-04-03T13:30:35.478Z,11.62
2023-04-03T13:36:04.201Z,10.97
2023-04-03T13:41:32.967Z,10.64
2023-04-03T13:47:02.549Z,10.30
2023-04-03T13:52:38.387Z,10.08
2023-04-03T14:05:14.560Z,10.25
2023-04-03T14:10:35.810Z,10.48
2023-04-03T14:22:19.272Z,9.58
2023-04-03T15:07:51.375Z,8.27
2023-04-03T15:13:13.477Z,8.14
2023-04-03T15:18:38.952Z,8.34
2023-04-03T15:24:05.574Z,8.40
2023-04-03T15:29:26.889Z,8.53
2023-04-03T15:34:48.658Z,8.55
2023-04-03T15:40:12.229Z,8.39
2023-04-03T15:46:13.472Z,7.99
2023-04-03T15:51:34.759Z,7.64
2023-04-03T15:56:58.524Z,7.52
2023-04-03T16:02:28.729Z,7.29
2023-04-03T16:08:58.111Z,7.24
2023-04-03T16:14:18.912Z,7.10
2023-04-03T16:19:39.961Z,7.21
2023-04-03T16:25:01.437Z,7.00
2023-04-03T16:30:22.716Z,6.92
2023-04-03T16:35:45.096Z,6.65
2023-04-03T16:41:06.633Z,6.50
2023-04-03T16:46:27.822Z,6.27
2023-04-03T16:51:57.622Z,6.25
2023-04-03T16:57:26.198Z,6.21
2023-04-03T17:03:07.054Z,5.95
2023-04-03T17:08:29.032Z,5.89
2023-04-03T17:19:45.440Z,5.80
2023-04-03T17:25:07.057Z,5.62
2023-04-03T17:30:28.318Z,5.55
2023-04-03T17:35:49.596Z,5.61
2023-04-03T18:06:17.685Z,5.30
2023-04-03T18:11:38.913Z,5.21
2023-04-03T18:17:00.783Z,5.12
2023-04-03T18:22:21.998Z,5.16
2023-04-03T18:27:43.304Z,5.09
2023-04-03T18:33:04.220Z,5.04
2023-04-03T18:38:25.509Z,4.99
2023-04-03T18:43:46.489Z,4.99
2023-04-03T18:49:08.198Z,5.00
2023-04-03T18:54:37.366Z,4.96
2023-04-03T18:59:59.154Z,4.96
2023-04-03T19:05:20.873Z,4.92
2023-04-03T19:10:42.108Z,4.86
2023-04-03T19:22:37.913Z,4.76
2023-04-03T19:28:00.015Z,4.69
2023-04-03T19:33:21.362Z,4.55
2023-04-03T19:38:42.797Z,4.48
2023-04-03T19:44:04.751Z,4.49
2023-04-03T19:49:26.030Z,4.48
2023-04-03T19:54:49.583Z,4.35
2023-04-03T20:00:13.708Z,4.23
2023-04-03T20:05:34.664Z,4.18
2023-04-03T20:10:56.066Z,4.18
2023-04-03T20:16:17.540Z,4.17
2023-04-03T20:21:38.896Z,4.15
2023-04-03T20:27:00.188Z,4.12
2023-04-03T20:32:21.886Z,4.17
2023-04-03T20:37:43.616Z,4.23
2023-04-03T20:43:05.837Z,4.31
2023-04-03T20:48:30.404Z,4.32
2023-04-03T20:53:54.970Z,4.36
2023-04-03T20:59:17.109Z,4.31
2023-04-03T21:04:42.226Z,4.29
2023-04-03T21:10:44.564Z,4.27
2023-04-03T21:16:13.456Z,4.23
2023-04-03T21:21:43.300Z,4.13
2023-04-03T21:27:08.561Z,4.04
2023-04-03T21:32:30.622Z,4.00
2023-04-03T21:37:51.418Z,3.82
2023-04-03T21:43:12.536Z,3.89
2023-04-03T21:48:33.473Z,3.81
2023-04-03T21:53:55.446Z,3.92
2023-04-03T21:59:16.668Z,3.92
2023-04-03T22:04:38.217Z,3.93
2023-04-03T22:09:59.257Z,4.01
2023-04-03T22:15:20.145Z,4.04
2023-04-03T22:20:43.233Z,4.08
2023-04-03T22:26:08.111Z,4.05
2023-04-03T22:31:28.970Z,4.01
2023-04-03T22:36:49.941Z,4.01
2023-04-03T22:42:10.758Z,3.97
2023-04-03T22:47:32.004Z,3.97
2023-04-03T22:52:53.058Z,3.95
2023-04-03T22:58:14.076Z,3.95
2023-04-03T23:03:35.678Z,3.90
2023-04-03T23:08:56.807Z,3.90
2023-04-03T23:14:17.673Z,3.92
2023-04-03T23:19:38.758Z,3.90
2023-04-03T23:24:59.853Z,3.87
2023-04-03T23:30:21.770Z,3.85
2023-04-03T23:35:46.776Z,3.77
2023-04-03T23:41:08.038Z,3.70
2023-04-03T23:46:28.974Z,3.70
2023-04-03T23:51:50.108Z,3.61
2023-04-03T23:57:11.106Z,3.61
